Time;durP1;ratioP1;P1;durP2;ratioP2;P2;SDS_P1;SDS_P2;PMS_P1;PMS_P2;Temp;Humidity;BMP_temperature;BMP_pressure;BME280_temperature;BME280_humidity;BME280_pressure;Samples;Min_cycle;Max_cycle;Signal;HPM_P1;HPM_P2
2021/07/17 00:01:45;;;;;;;6.05;3.80;;;24.20;99.50;;;;;;5084828;28;20032;-89
2021/07/17 00:04:14;;;;;;;4.85;3.72;;;24.20;99.50;;;;;;5101773;28;20023;-89
2021/07/17 00:06:39;;;;;;;5.35;3.60;;;24.20;99.50;;;;;;5121148;28;20488;-89
2021/07/17 00:09:08;;;;;;;4.82;3.95;;;24.20;99.50;;;;;;5104341;28;20130;-88
2021/07/17 00:11:34;;;;;;;5.13;3.72;;;24.20;99.50;;;;;;5103533;28;20035;-88
2021/07/17 00:14:00;;;;;;;5.88;4.18;;;24.30;99.60;;;;;;5120166;28;20027;-89
2021/07/17 00:16:26;;;;;;;5.80;3.95;;;24.20;99.60;;;;;;5083550;28;20035;-89
2021/07/17 00:18:55;;;;;;;4.25;3.53;;;24.30;99.60;;;;;;5118507;28;20043;-90
2021/07/17 00:21:22;;;;;;;5.00;3.78;;;24.30;99.60;;;;;;5100018;28;20023;-89
2021/07/17 00:23:47;;;;;;;6.68;4.20;;;24.30;99.60;;;;;;5118230;28;20020;-90
2021/07/17 00:26:13;;;;;;;4.63;3.92;;;24.20;99.60;;;;;;5099762;28;20076;-90
2021/07/17 00:28:39;;;;;;;4.55;3.65;;;24.30;99.60;;;;;;5098449;28;20023;-90
2021/07/17 00:31:07;;;;;;;5.82;4.20;;;24.20;99.60;;;;;;5115047;28;20023;-90
2021/07/17 00:33:33;;;;;;;4.88;3.90;;;24.30;99.60;;;;;;5118663;28;20024;-89
2021/07/17 00:35:59;;;;;;;5.55;4.03;;;24.30;99.60;;;;;;5083010;28;20035;-89
2021/07/17 00:38:25;;;;;;;6.05;4.45;;;24.30;99.60;;;;;;5099240;28;20019;-90
2021/07/17 00:40:50;;;;;;;5.90;4.47;;;24.20;99.60;;;;;;5099098;28;20338;-92
2021/07/17 00:43:17;;;;;;;6.57;5.00;;;24.30;99.60;;;;;;5099061;28;20050;-89
2021/07/17 00:45:42;;;;;;;8.63;4.80;;;24.20;99.60;;;;;;5099481;28;20069;-89
2021/07/17 00:48:08;;;;;;;6.38;4.95;;;24.30;99.60;;;;;;5099735;28;20032;-90
2021/07/17 00:50:34;;;;;;;5.00;4.32;;;24.30;99.60;;;;;;5117798;28;20409;-89
2021/07/17 00:52:59;;;;;;;6.82;5.20;;;24.30;99.70;;;;;;5116763;28;20029;-90
2021/07/17 00:55:27;;;;;;;5.72;5.10;;;24.30;99.60;;;;;;5099561;28;20051;-89
2021/07/17 00:57:54;;;;;;;8.20;6.10;;;24.30;99.70;;;;;;5099053;28;20457;-90
2021/07/17 01:00:20;;;;;;;7.28;5.30;;;24.30;99.70;;;;;;5117610;28;20466;-87
2021/07/17 01:02:50;;;;;;;7.10;5.50;;;24.30;99.70;;;;;;5117056;28;20051;-88
2021/07/17 01:05:17;;;;;;;6.15;5.55;;;24.30;99.70;;;;;;5099615;28;20035;-87
2021/07/17 01:07:47;;;;;;;7.43;5.88;;;24.30;99.70;;;;;;5082093;28;20520;-87
2021/07/17 01:10:15;;;;;;;6.90;5.68;;;24.30;99.70;;;;;;5098601;28;20035;-88
2021/07/17 01:12:41;;;;;;;6.93;6.18;;;24.30;99.70;;;;;;5099785;28;20050;-88
2021/07/17 01:15:08;;;;;;;7.68;6.10;;;24.30;99.70;;;;;;5085994;28;20047;-87
2021/07/17 01:17:34;;;;;;;7.40;6.47;;;24.30;99.70;;;;;;5119750;28;20019;-87
2021/07/17 01:20:02;;;;;;;8.73;7.53;;;24.40;99.70;;;;;;5098653;28;20032;-89
2021/07/17 01:22:28;;;;;;;8.93;6.25;;;24.40;99.70;;;;;;5098093;28;20474;-89
2021/07/17 01:24:54;;;;;;;8.80;7.13;;;24.40;99.70;;;;;;5116284;28;20028;-89
2021/07/17 01:27:19;;;;;;;9.43;7.07;;;24.40;99.70;;;;;;5081219;28;20032;-89
2021/07/17 01:29:46;;;;;;;8.48;7.35;;;24.40;99.70;;;;;;5080724;28;20331;-90
2021/07/17 01:32:15;;;;;;;9.70;7.68;;;24.40;99.70;;;;;;5097423;28;20074;-89
2021/07/17 01:34:41;;;;;;;9.45;7.65;;;24.40;99.70;;;;;;5097746;28;20431;-89
2021/07/17 01:37:09;;;;;;;9.15;7.90;;;24.40;99.70;;;;;;5097740;28;20026;-89
2021/07/17 01:39:35;;;;;;;9.43;7.85;;;24.40;99.70;;;;;;5097843;28;20031;-88
2021/07/17 01:42:00;;;;;;;9.05;7.60;;;24.30;99.60;;;;;;5097544;28;20020;-89
2021/07/17 01:44:26;;;;;;;9.25;7.78;;;24.40;99.70;;;;;;5081075;28;20465;-89
2021/07/17 01:46:53;;;;;;;8.95;8.00;;;24.40;99.70;;;;;;5064121;28;20481;-89
2021/07/17 01:49:19;;;;;;;9.48;7.97;;;24.40;99.70;;;;;;5115914;28;20035;-88
2021/07/17 01:51:45;;;;;;;10.10;8.45;;;24.40;99.70;;;;;;5080474;28;20028;-88
2021/07/17 01:54:12;;;;;;;10.57;8.35;;;24.40;99.70;;;;;;5080858;28;20020;-89
2021/07/17 01:56:40;;;;;;;10.38;8.38;;;24.40;99.70;;;;;;5098389;28;20048;-88
2021/07/17 01:59:09;;;;;;;9.27;8.38;;;24.40;99.70;;;;;;5080473;28;20081;-88
2021/07/17 02:01:36;;;;;;;10.90;9.18;;;24.40;99.80;;;;;;5115910;28;20026;-89
2021/07/17 02:04:02;;;;;;;9.88;8.32;;;24.40;99.80;;;;;;5114736;28;20028;-88
2021/07/17 02:06:29;;;;;;;13.25;9.80;;;24.40;99.80;;;;;;5097134;28;20530;-88
2021/07/17 02:08:57;;;;;;;11.25;8.93;;;24.40;99.90;;;;;;5077442;28;20315;-89
2021/07/17 02:11:23;;;;;;;10.77;8.88;;;24.40;99.80;;;;;;5076275;28;20064;-87
2021/07/17 02:13:50;;;;;;;11.48;9.50;;;24.40;99.90;;;;;;5076283;28;20028;-88
2021/07/17 02:16:16;;;;;;;10.40;8.65;;;24.40;99.80;;;;;;5076163;28;20028;-87
2021/07/17 02:18:43;;;;;;;12.32;9.73;;;24.40;99.80;;;;;;5059738;28;20039;-89
2021/07/17 02:21:09;;;;;;;10.93;9.18;;;24.40;99.90;;;;;;5076269;28;20391;-89
2021/07/17 02:23:36;;;;;;;10.80;9.45;;;24.40;99.90;;;;;;5095429;28;20024;-89
2021/07/17 02:26:04;;;;;;;11.93;9.60;;;24.40;99.90;;;;;;5079777;28;20118;-88
2021/07/17 02:28:30;;;;;;;14.32;10.55;;;24.40;99.90;;;;;;5098293;28;20099;-89
2021/07/17 02:30:56;;;;;;;12.88;10.15;;;24.40;99.90;;;;;;5079154;28;20078;-90
2021/07/17 02:33:22;;;;;;;13.38;10.00;;;24.40;99.90;;;;;;5061301;28;20111;-90
2021/07/17 02:35:48;;;;;;;12.48;9.65;;;24.40;99.90;;;;;;5095608;28;20031;-90
2021/07/17 02:38:15;;;;;;;11.93;9.75;;;24.40;99.90;;;;;;5095568;28;20085;-90
2021/07/17 02:40:41;;;;;;;11.13;9.25;;;24.40;99.90;;;;;;5077423;28;20031;-90
2021/07/17 02:43:09;;;;;;;11.88;9.68;;;24.40;99.90;;;;;;5060146;28;20465;-90
2021/07/17 02:45:35;;;;;;;11.30;10.00;;;24.40;99.90;;;;;;5077967;28;20051;-88
2021/07/17 02:48:01;;;;;;;13.63;10.40;;;24.40;99.90;;;;;;5076916;28;20476;-89
2021/07/17 02:50:26;;;;;;;11.93;10.30;;;24.40;99.90;;;;;;5076724;28;20474;-88
2021/07/17 02:52:52;;;;;;;11.68;9.85;;;24.40;99.90;;;;;;5059921;28;20039;-89
2021/07/17 02:55:18;;;;;;;13.18;10.80;;;24.40;99.90;;;;;;5077239;28;20024;-89
2021/07/17 02:57:44;;;;;;;11.55;9.82;;;24.40;99.90;;;;;;5095497;28;20028;-90
2021/07/17 03:00:12;;;;;;;12.38;10.65;;;24.40;99.90;;;;;;5077175;28;20032;-89
2021/07/17 03:02:38;;;;;;;11.52;9.60;;;24.40;99.90;;;;;;5077641;28;20133;-89
2021/07/17 03:05:07;;;;;;;12.40;10.65;;;24.40;99.90;;;;;;5063676;28;20063;-89
2021/07/17 03:07:33;;;;;;;12.82;10.40;;;24.40;99.90;;;;;;5103972;28;20044;-89
2021/07/17 03:09:59;;;;;;;11.85;10.02;;;24.40;99.90;;;;;;5115481;28;20081;-88
2021/07/17 03:12:25;;;;;;;11.82;10.52;;;24.40;99.90;;;;;;5097583;28;20160;-88
2021/07/17 03:14:51;;;;;;;11.82;10.55;;;24.40;99.90;;;;;;5081052;28;20246;-88
2021/07/17 03:17:17;;;;;;;11.45;10.25;;;24.40;99.90;;;;;;5119374;28;20027;-89
2021/07/17 03:19:42;;;;;;;13.00;10.60;;;24.40;99.90;;;;;;5101242;28;20361;-89
2021/07/17 03:22:09;;;;;;;14.65;11.27;;;24.40;99.90;;;;;;5120856;28;20031;-89
2021/07/17 03:24:35;;;;;;;13.90;11.00;;;24.30;99.90;;;;;;5084834;28;20111;-89
2021/07/17 03:27:02;;;;;;;13.07;10.55;;;24.30;99.90;;;;;;5101675;28;20082;-89
2021/07/17 03:29:28;;;;;;;12.63;10.60;;;24.40;99.90;;;;;;5091324;28;20036;-89
2021/07/17 03:31:54;;;;;;;13.35;10.95;;;24.30;99.90;;;;;;5115809;28;20140;-89
2021/07/17 03:34:19;;;;;;;13.95;11.50;;;24.30;99.90;;;;;;5084445;28;20053;-90
2021/07/17 03:36:45;;;;;;;14.77;11.82;;;24.40;99.90;;;;;;5100696;28;20030;-89
2021/07/17 03:39:11;;;;;;;11.65;9.90;;;24.40;99.90;;;;;;5118966;28;20362;-88
2021/07/17 03:41:37;;;;;;;13.60;10.82;;;24.40;99.90;;;;;;5100950;28;20032;-88
2021/07/17 03:44:03;;;;;;;12.10;10.05;;;24.30;99.90;;;;;;5100965;28;20024;-88
2021/07/17 03:46:30;;;;;;;10.95;9.70;;;24.30;99.90;;;;;;5100675;28;20127;-86
2021/07/17 03:48:55;;;;;;;12.15;10.02;;;24.30;99.90;;;;;;5100525;28;20024;-86
2021/07/17 03:51:21;;;;;;;12.45;10.40;;;24.30;99.90;;;;;;5118639;28;20024;-88
2021/07/17 03:53:47;;;;;;;11.48;9.73;;;24.30;99.90;;;;;;5083714;28;20027;-88
2021/07/17 03:56:13;;;;;;;11.23;9.52;;;24.30;99.90;;;;;;5100064;28;20027;-88
2021/07/17 03:58:38;;;;;;;11.43;9.73;;;24.30;99.90;;;;;;5118658;28;20028;-88
2021/07/17 04:01:04;;;;;;;13.32;10.77;;;24.30;99.90;;;;;;5118091;28;20028;-89
2021/07/17 04:03:32;;;;;;;13.52;10.45;;;24.30;99.90;;;;;;5118430;28;20424;-87
2021/07/17 04:05:58;;;;;;;12.68;10.35;;;24.30;99.90;;;;;;5099668;28;20024;-88
2021/07/17 04:08:23;;;;;;;11.20;9.55;;;24.30;99.90;;;;;;5099262;28;20414;-88
2021/07/17 04:10:49;;;;;;;12.98;10.80;;;24.30;99.90;;;;;;5100203;28;20495;-89
2021/07/17 04:13:15;;;;;;;11.80;10.05;;;24.30;99.90;;;;;;5118074;28;20403;-89
2021/07/17 04:15:41;;;;;;;12.32;9.85;;;24.30;99.90;;;;;;5100284;28;20485;-89
2021/07/17 04:18:07;;;;;;;13.15;9.77;;;24.30;99.90;;;;;;5099910;28;20027;-89
2021/07/17 04:20:32;;;;;;;11.88;10.15;;;24.30;99.90;;;;;;5099893;28;20035;-89
2021/07/17 04:22:58;;;;;;;12.15;9.88;;;24.30;99.90;;;;;;5082976;28;20055;-89
2021/07/17 04:25:24;;;;;;;13.82;10.43;;;24.30;99.90;;;;;;5099976;28;20031;-89
2021/07/17 04:27:49;;;;;;;11.95;9.85;;;24.30;99.90;;;;;;5098992;28;20020;-89
2021/07/17 04:30:15;;;;;;;12.95;9.93;;;24.30;99.90;;;;;;5099556;28;20028;-89
2021/07/17 04:32:44;;;;;;;10.65;9.13;;;24.30;99.90;;;;;;5118496;28;20024;-89
2021/07/17 04:35:13;;;;;;;10.88;9.18;;;24.20;99.90;;;;;;5099888;28;20059;-89
2021/07/17 04:37:39;;;;;;;10.52;9.23;;;24.30;99.90;;;;;;5104213;28;20023;-88
2021/07/17 04:40:05;;;;;;;11.27;9.10;;;24.30;99.90;;;;;;5102049;28;20036;-87
2021/07/17 04:42:31;;;;;;;10.18;8.20;;;24.30;99.90;;;;;;5119696;28;20077;-88
2021/07/17 04:44:57;;;;;;;10.40;8.45;;;24.20;99.90;;;;;;5101085;28;20031;-88
2021/07/17 04:47:22;;;;;;;11.07;8.90;;;24.30;99.90;;;;;;5100213;28;20106;-89
2021/07/17 04:49:48;;;;;;;8.88;7.85;;;24.20;99.90;;;;;;5100288;28;20534;-88
2021/07/17 04:52:16;;;;;;;9.65;7.68;;;24.20;99.90;;;;;;5101275;28;20051;-88
2021/07/17 04:54:42;;;;;;;9.73;8.23;;;24.30;99.90;;;;;;5101367;28;20093;-89
2021/07/17 04:57:08;;;;;;;9.25;7.53;;;24.30;99.90;;;;;;5101323;28;20411;-88
2021/07/17 04:59:34;;;;;;;10.52;8.25;;;24.30;99.90;;;;;;5118631;28;20031;-88
2021/07/17 05:01:59;;;;;;;9.65;7.57;;;24.20;99.90;;;;;;5082414;28;20032;-89
2021/07/17 05:04:25;;;;;;;8.70;7.32;;;24.30;99.90;;;;;;5099111;28;20110;-89
2021/07/17 05:06:51;;;;;;;8.63;7.40;;;24.30;99.90;;;;;;5098817;28;20508;-90
2021/07/17 05:09:17;;;;;;;8.63;7.35;;;24.20;99.90;;;;;;5116209;28;20512;-94
2021/07/17 05:11:42;;;;;;;6.90;6.07;;;24.20;99.90;;;;;;5098529;28;20030;-89
2021/07/17 05:14:10;;;;;;;7.57;6.70;;;24.30;99.90;;;;;;5098614;28;20032;-89
2021/07/17 05:16:36;;;;;;;6.72;5.60;;;24.30;99.90;;;;;;5065383;28;20024;-89
2021/07/17 05:19:02;;;;;;;5.95;5.35;;;24.20;99.90;;;;;;5098488;28;20069;-89
2021/07/17 05:21:28;;;;;;;7.10;5.97;;;24.30;99.90;;;;;;5098253;28;20032;-89
2021/07/17 05:23:53;;;;;;;7.25;5.35;;;24.30;99.90;;;;;;5116338;28;20026;-88
2021/07/17 05:26:21;;;;;;;6.03;5.43;;;24.30;99.90;;;;;;5115609;28;20030;-88
2021/07/17 05:28:47;;;;;;;6.35;5.00;;;24.30;99.90;;;;;;5116829;28;20050;-89
2021/07/17 05:31:13;;;;;;;5.22;4.53;;;24.30;99.90;;;;;;5116423;28;20024;-89
2021/07/17 05:33:41;;;;;;;6.53;5.03;;;24.30;99.90;;;;;;5064313;28;20135;-89
2021/07/17 05:36:06;;;;;;;5.78;4.80;;;24.30;99.90;;;;;;5081828;28;20050;-89
2021/07/17 05:38:32;;;;;;;5.30;4.53;;;24.30;99.90;;;;;;5115261;28;20376;-88
2021/07/17 05:40:58;;;;;;;6.13;4.60;;;24.30;99.90;;;;;;5098134;28;20144;-88
2021/07/17 05:43:24;;;;;;;5.22;4.18;;;24.30;99.90;;;;;;5081180;28;20028;-89
2021/07/17 05:45:52;;;;;;;4.70;4.13;;;24.30;99.90;;;;;;5082972;28;20150;-89
2021/07/17 05:48:18;;;;;;;4.93;4.40;;;24.40;99.90;;;;;;5065322;28;20027;-89
2021/07/17 05:50:48;;;;;;;4.35;3.78;;;24.30;99.90;;;;;;5080371;28;20504;-89
2021/07/17 05:53:14;;;;;;;5.30;4.32;;;24.30;99.90;;;;;;5098141;28;20032;-90
2021/07/17 05:55:41;;;;;;;4.85;4.18;;;24.40;99.90;;;;;;5097410;28;20526;-87
2021/07/17 05:58:07;;;;;;;4.68;4.10;;;24.40;99.90;;;;;;5115229;28;20066;-88
2021/07/17 06:00:34;;;;;;;3.50;3.10;;;24.40;99.90;;;;;;5080596;28;20135;-88
2021/07/17 06:03:03;;;;;;;4.15;3.47;;;24.40;99.90;;;;;;5115168;28;20460;-89
2021/07/17 06:05:29;;;;;;;3.83;3.35;;;24.40;99.90;;;;;;5097523;28;20058;-89
2021/07/17 06:07:54;;;;;;;5.63;3.45;;;24.40;99.90;;;;;;5090376;28;20101;-89
2021/07/17 06:10:20;;;;;;;3.95;3.28;;;24.40;99.90;;;;;;5076335;28;20103;-88
2021/07/17 06:12:46;;;;;;;3.72;2.78;;;24.40;99.90;;;;;;5076717;28;20521;-88
2021/07/17 06:15:13;;;;;;;3.53;2.88;;;24.40;99.90;;;;;;5076977;28;20122;-89
2021/07/17 06:17:38;;;;;;;3.38;3.05;;;24.40;99.90;;;;;;5059942;28;20032;-87
2021/07/17 06:20:05;;;;;;;3.53;3.17;;;24.40;99.90;;;;;;5094634;28;20032;-88
2021/07/17 06:22:31;;;;;;;3.85;3.30;;;24.40;99.90;;;;;;5076175;28;20036;-85
2021/07/17 06:24:56;;;;;;;3.50;3.20;;;24.40;99.90;;;;;;5059628;28;20028;-86
2021/07/17 06:27:22;;;;;;;3.03;2.72;;;24.40;99.90;;;;;;5060336;28;20031;-86
2021/07/17 06:29:48;;;;;;;3.45;2.70;;;24.40;99.90;;;;;;5059784;28;20043;-87
2021/07/17 06:32:19;;;;;;;2.97;2.67;;;24.40;99.90;;;;;;5077056;28;20032;-88
2021/07/17 06:34:47;;;;;;;2.63;2.35;;;24.40;99.90;;;;;;5076838;28;20477;-90
2021/07/17 06:37:13;;;;;;;3.45;2.60;;;24.50;99.90;;;;;;5059273;28;20067;-88
2021/07/17 06:39:41;;;;;;;2.45;2.20;;;24.50;99.90;;;;;;5075946;28;20024;-88
2021/07/17 06:42:07;;;;;;;3.40;2.83;;;24.40;99.90;;;;;;5060043;28;20119;-87
2021/07/17 06:44:35;;;;;;;3.13;2.30;;;24.40;99.90;;;;;;5077105;28;20052;-88
2021/07/17 06:47:02;;;;;;;2.67;2.45;;;24.40;99.90;;;;;;5077861;28;20058;-91
2021/07/17 06:49:28;;;;;;;2.97;2.30;;;24.50;99.90;;;;;;5060837;28;20032;-96
2021/07/17 06:51:56;;;;;;;3.28;2.00;;;24.50;99.90;;;;;;5077639;28;20027;-92
2021/07/17 06:54:22;;;;;;;1.88;1.70;;;24.50;99.90;;;;;;5064433;28;20040;-90
2021/07/17 06:56:49;;;;;;;2.45;2.00;;;24.50;99.90;;;;;;5078006;28;20389;-91
2021/07/17 06:59:15;;;;;;;2.10;1.90;;;24.50;99.90;;;;;;5076223;28;20035;-90
2021/07/17 07:01:48;;;;;;;3.20;2.05;;;24.50;99.90;;;;;;5075842;28;20076;-93
2021/07/17 07:04:15;;;;;;;5.00;2.38;;;24.50;99.90;;;;;;5059403;28;20098;-89
2021/07/17 07:06:41;;;;;;;4.10;2.47;;;24.50;99.90;;;;;;5075721;28;20036;-88
2021/07/17 07:09:07;;;;;;;3.67;2.50;;;24.60;99.90;;;;;;5075636;28;20458;-88
2021/07/17 07:11:32;;;;;;;4.07;2.10;;;24.60;99.90;;;;;;5093360;28;20031;-89
2021/07/17 07:13:58;;;;;;;4.65;2.65;;;24.70;99.90;;;;;;5057668;28;20028;-88
2021/07/17 07:16:24;;;;;;;2.70;2.13;;;24.70;99.90;;;;;;5075578;28;20071;-89
2021/07/17 07:18:49;;;;;;;2.30;2.05;;;24.70;99.90;;;;;;5075813;28;20428;-87
2021/07/17 07:21:15;;;;;;;2.45;2.10;;;24.70;99.90;;;;;;5093634;28;20032;-87
2021/07/17 07:23:40;;;;;;;2.45;1.67;;;24.70;99.90;;;;;;5058780;28;20029;-88
2021/07/17 07:26:06;;;;;;;1.70;1.60;;;24.80;99.90;;;;;;5075881;28;20029;-87
2021/07/17 07:28:32;;;;;;;2.00;1.65;;;24.80;99.90;;;;;;5058644;28;20036;-89
2021/07/17 07:30:57;;;;;;;2.05;1.88;;;24.80;99.90;;;;;;5058708;28;20071;-88
2021/07/17 07:33:23;;;;;;;3.78;2.30;;;24.80;99.90;;;;;;5075911;28;20028;-88
2021/07/17 07:35:49;;;;;;;4.18;2.70;;;24.90;99.90;;;;;;5058614;28;20036;-88
2021/07/17 07:38:14;;;;;;;4.03;2.58;;;24.90;99.90;;;;;;5075467;28;20051;-88
2021/07/17 07:40:42;;;;;;;5.05;3.05;;;24.90;99.90;;;;;;5075611;28;20071;-88
2021/07/17 07:43:10;;;;;;;4.78;2.92;;;25.00;99.90;;;;;;5059257;28;20032;-88
2021/07/17 07:45:35;;;;;;;3.97;2.80;;;25.00;99.90;;;;;;5059096;28;20024;-89
2021/07/17 07:48:01;;;;;;;4.80;2.80;;;25.00;99.90;;;;;;5059047;28;20188;-88
2021/07/17 07:50:27;;;;;;;4.07;2.38;;;25.00;99.90;;;;;;5093751;28;20050;-88
2021/07/17 07:52:52;;;;;;;4.30;2.60;;;25.10;99.90;;;;;;5058683;28;20028;-87
2021/07/17 07:55:18;;;;;;;4.28;2.55;;;25.10;99.90;;;;;;5075537;28;20099;-89
2021/07/17 07:57:44;;;;;;;3.88;2.53;;;25.10;99.90;;;;;;5076482;28;20126;-87
2021/07/17 08:00:13;;;;;;;2.58;2.03;;;25.10;99.90;;;;;;5076954;28;20119;-86
2021/07/17 08:02:40;;;;;;;3.83;2.65;;;25.10;99.90;;;;;;5095007;28;20081;-87
2021/07/17 08:05:07;;;;;;;2.20;1.95;;;25.10;99.90;;;;;;5079309;28;20035;-86
2021/07/17 08:07:32;;;;;;;2.60;1.92;;;25.10;99.90;;;;;;5081743;28;20056;-86
2021/07/17 08:09:58;;;;;;;2.33;1.70;;;25.10;99.90;;;;;;5098157;28;20133;-87
2021/07/17 08:12:24;;;;;;;2.22;1.60;;;25.10;99.90;;;;;;5099262;28;20085;-88
2021/07/17 08:14:49;;;;;;;2.13;1.52;;;25.10;99.90;;;;;;5098453;28;20027;-86
2021/07/17 08:17:15;;;;;;;1.63;1.52;;;25.10;99.90;;;;;;5081951;28;20043;-87
2021/07/17 08:19:43;;;;;;;1.60;1.48;;;25.00;99.90;;;;;;5081696;28;20031;-86
2021/07/17 08:22:08;;;;;;;1.60;1.30;;;25.00;99.90;;;;;;5098556;28;20062;-88
2021/07/17 08:24:34;;;;;;;2.67;1.42;;;25.00;99.90;;;;;;5065130;28;20481;-86
2021/07/17 08:27:00;;;;;;;1.23;1.13;;;25.00;99.90;;;;;;5098475;28;20385;-87
2021/07/17 08:29:25;;;;;;;0.80;0.80;;;25.00;99.90;;;;;;5081853;28;20046;-87
2021/07/17 08:31:51;;;;;;;1.88;1.17;;;25.00;99.90;;;;;;5064712;28;20024;-86
2021/07/17 08:34:16;;;;;;;1.63;1.10;;;25.00;99.90;;;;;;5117308;28;20058;-87
2021/07/17 08:36:42;;;;;;;1.50;0.98;;;24.90;99.90;;;;;;5099381;28;20084;-86
2021/07/17 08:39:08;;;;;;;1.63;0.82;;;25.00;99.90;;;;;;5117038;28;20036;-88
2021/07/17 08:41:34;;;;;;;1.00;0.93;;;24.90;99.90;;;;;;5081758;28;20032;-88
2021/07/17 08:44:02;;;;;;;1.52;1.10;;;24.90;99.90;;;;;;5076174;28;20024;-88
2021/07/17 08:46:28;;;;;;;1.42;1.00;;;24.90;99.90;;;;;;5061038;28;20032;-87
2021/07/17 08:48:56;;;;;;;0.98;0.85;;;24.90;99.90;;;;;;5096266;28;20039;-88
2021/07/17 08:51:22;;;;;;;0.80;0.80;;;24.90;99.90;;;;;;5097435;28;20026;-87
2021/07/17 08:53:49;;;;;;;1.38;0.77;;;24.90;99.90;;;;;;5115716;28;20034;-86
2021/07/17 08:56:16;;;;;;;1.17;0.80;;;24.90;99.90;;;;;;5116029;28;20481;-87
2021/07/17 08:58:42;;;;;;;1.48;0.80;;;24.90;99.90;;;;;;5097557;28;20036;-90
2021/07/17 09:01:08;;;;;;;0.68;0.68;;;24.90;99.90;;;;;;5080199;28;20040;-86
2021/07/17 09:03:34;;;;;;;0.73;0.70;;;24.90;99.90;;;;;;5068069;28;20036;-86
2021/07/17 09:05:59;;;;;;;0.60;0.60;;;24.90;99.90;;;;;;5093777;28;20466;-88
2021/07/17 09:08:25;;;;;;;1.50;0.77;;;24.90;99.90;;;;;;5070987;28;20090;-86
2021/07/17 09:10:52;;;;;;;1.10;0.95;;;24.90;99.90;;;;;;5073211;28;20032;-85
2021/07/17 09:13:34;;;;;;;0.77;0.75;;;24.90;99.90;;;;;;5084717;28;20034;-86
2021/07/17 09:16:12;;;;;;;0.65;0.65;;;25.00;99.90;;;;;;5080287;28;20114;-87
2021/07/17 09:18:49;;;;;;;0.60;0.60;;;25.00;99.90;;;;;;5071863;28;20028;-87
2021/07/17 09:21:17;;;;;;;0.70;0.70;;;25.00;99.80;;;;;;5101196;28;20024;-86
2021/07/17 09:23:54;;;;;;;0.85;0.70;;;25.00;99.80;;;;;;5106438;28;20059;-88
2021/07/17 09:26:25;;;;;;;0.55;0.55;;;25.00;99.70;;;;;;5106395;28;20028;-87
2021/07/17 09:29:04;;;;;;;0.65;0.65;;;25.00;99.70;;;;;;5103219;28;20023;-91
2021/07/17 09:31:32;;;;;;;0.80;0.80;;;25.00;99.70;;;;;;5081745;28;20028;-89
2021/07/17 09:34:05;;;;;;;0.60;0.60;;;25.00;99.70;;;;;;5091100;28;20047;-89
2021/07/17 09:36:32;;;;;;;0.70;0.70;;;25.00;99.70;;;;;;5092757;28;20485;-88
2021/07/17 09:38:58;;;;;;;0.80;0.77;;;25.00;99.70;;;;;;5112038;28;20093;-88
2021/07/17 09:41:24;;;;;;;0.60;0.60;;;25.00;99.70;;;;;;5080631;28;20039;-88
2021/07/17 09:44:02;;;;;;;1.92;0.90;;;25.00;99.70;;;;;;5101528;28;20040;-88
2021/07/17 09:46:30;;;;;;;0.77;0.77;;;25.00;99.70;;;;;;5097941;28;20028;-87
2021/07/17 09:49:03;;;;;;;0.70;0.70;;;25.00;99.70;;;;;;5078166;28;20081;-87
2021/07/17 09:51:31;;;;;;;0.70;0.70;;;25.00;99.70;;;;;;5098275;28;20085;-88
2021/07/17 09:54:06;;;;;;;0.60;0.60;;;25.00;99.60;;;;;;5079669;28;20296;-89
2021/07/17 09:56:36;;;;;;;0.70;0.60;;;25.00;99.60;;;;;;5095871;28;20031;-89
2021/07/17 09:59:04;;;;;;;0.93;0.80;;;25.00;99.60;;;;;;5078757;28;20024;-88
2021/07/17 10:01:31;;;;;;;0.70;0.70;;;25.00;99.60;;;;;;5077360;28;20477;-88
2021/07/17 10:04:03;;;;;;;0.73;0.65;;;25.00;99.60;;;;;;5076948;28;20024;-88
2021/07/17 10:06:31;;;;;;;0.60;0.60;;;25.10;99.60;;;;;;5077282;28;20480;-87
2021/07/17 10:08:59;;;;;;;0.47;0.47;;;25.10;99.50;;;;;;5076814;28;20047;-87
2021/07/17 10:11:26;;;;;;;0.88;0.70;;;25.10;99.50;;;;;;5095413;28;20477;-87
2021/07/17 10:13:53;;;;;;;0.60;0.60;;;25.10;99.40;;;;;;5085021;28;20085;-89
2021/07/17 10:16:22;;;;;;;0.73;0.70;;;25.10;99.40;;;;;;5081543;28;20460;-87
2021/07/17 10:18:49;;;;;;;0.57;0.57;;;25.10;99.40;;;;;;5077063;28;20028;-87
2021/07/17 10:21:15;;;;;;;0.65;0.60;;;25.10;99.30;;;;;;5077403;28;20077;-88
2021/07/17 10:23:42;;;;;;;1.08;0.60;;;25.10;99.30;;;;;;5094772;28;20030;-88
2021/07/17 10:26:09;;;;;;;1.08;0.63;;;25.10;99.40;;;;;;5061149;28;20036;-88
2021/07/17 10:28:35;;;;;;;1.08;0.60;;;25.10;99.30;;;;;;5094953;28;20473;-88
2021/07/17 10:31:01;;;;;;;0.60;0.60;;;25.10;99.20;;;;;;5076392;28;20025;-89
2021/07/17 10:33:31;;;;;;;0.50;0.50;;;25.10;99.20;;;;;;5076314;28;20500;-88
2021/07/17 10:36:03;;;;;;;0.77;0.75;;;25.10;99.10;;;;;;5095324;28;20531;-89
2021/07/17 10:38:32;;;;;;;0.57;0.57;;;25.10;99.10;;;;;;5094435;28;20031;-88
2021/07/17 10:40:58;;;;;;;0.63;0.60;;;25.20;99.00;;;;;;5076750;28;20040;-88
2021/07/17 10:43:24;;;;;;;0.40;0.40;;;25.10;99.00;;;;;;5059460;28;20032;-87
2021/07/17 10:45:51;;;;;;;0.80;0.52;;;25.10;98.90;;;;;;5094546;28;20054;-88
2021/07/17 10:48:26;;;;;;;0.50;0.50;;;25.10;98.80;;;;;;5095589;28;20024;-87
2021/07/17 10:50:53;;;;;;;0.43;0.43;;;25.20;98.80;;;;;;5076091;28;20500;-93
2021/07/17 10:53:44;;;;;;;0.52;0.52;;;25.10;98.80;;;;;;5076547;28;20032;-88
2021/07/17 10:56:28;;;;;;;0.70;0.60;;;25.20;98.70;;;;;;5075974;28;20108;-87
2021/07/17 10:58:58;;;;;;;0.52;0.50;;;25.20;98.70;;;;;;5075440;28;20102;-88
2021/07/17 11:01:25;;;;;;;0.80;0.47;;;25.20;98.70;;;;;;5077029;28;20031;-87
2021/07/17 11:03:52;;;;;;;0.70;0.70;;;25.10;98.90;;;;;;5076698;28;20081;-87
2021/07/17 11:06:31;;;;;;;0.50;0.50;;;25.20;98.70;;;;;;5075472;28;20489;-87
2021/07/17 11:09:24;;;;;;;0.50;0.50;;;25.20;98.80;;;;;;5077885;28;20486;-88
2021/07/17 11:11:49;;;;;;;1.13;0.60;;;25.20;98.80;;;;;;5076160;28;20028;-87
2021/07/17 11:14:15;;;;;;;0.68;0.60;;;25.20;98.90;;;;;;5093609;28;20028;-87
2021/07/17 11:16:48;;;;;;;0.40;0.40;;;25.20;99.00;;;;;;5075769;28;20447;-88
2021/07/17 11:19:25;;;;;;;0.83;0.70;;;25.20;99.10;;;;;;5093713;28;20085;-88
2021/07/17 11:21:53;;;;;;;0.57;0.57;;;25.20;99.30;;;;;;5095102;28;20024;-88
2021/07/17 11:24:22;;;;;;;0.88;0.60;;;25.20;99.20;;;;;;5094208;28;20024;-88
2021/07/17 11:27:16;;;;;;;0.50;0.50;;;25.30;99.20;;;;;;5093815;28;20028;-88
2021/07/17 11:29:45;;;;;;;0.50;0.50;;;25.30;99.10;;;;;;5075301;28;20036;-87
2021/07/17 11:32:14;;;;;;;1.25;0.82;;;25.30;99.00;;;;;;5075023;28;20043;-85
2021/07/17 11:34:51;;;;;;;0.55;0.55;;;25.30;98.90;;;;;;5093895;28;20108;-88
2021/07/17 11:37:27;;;;;;;1.02;0.68;;;25.30;98.90;;;;;;5096066;28;20107;-87
2021/07/17 11:39:58;;;;;;;0.82;0.73;;;25.30;98.90;;;;;;5062728;28;20443;-86
2021/07/17 11:42:27;;;;;;;0.90;0.75;;;25.30;99.00;;;;;;5079624;28;20107;-87
2021/07/17 11:44:57;;;;;;;0.60;0.60;;;25.30;99.00;;;;;;5097585;28;20020;-87
2021/07/17 11:47:28;;;;;;;0.70;0.70;;;25.30;99.10;;;;;;5097914;28;20055;-88
2021/07/17 11:49:55;;;;;;;0.55;0.55;;;25.30;99.10;;;;;;5097590;28;20035;-85
2021/07/17 11:52:24;;;;;;;0.75;0.70;;;25.30;99.20;;;;;;5079175;28;20035;-86
2021/07/17 11:54:54;;;;;;;1.15;0.75;;;25.30;99.20;;;;;;5062983;28;20172;-84
2021/07/17 11:57:31;;;;;;;0.70;0.70;;;25.30;99.30;;;;;;5079079;28;20061;-85
2021/07/17 12:00:15;;;;;;;0.70;0.70;;;25.40;99.30;;;;;;5079139;28;20024;-87
2021/07/17 12:02:43;;;;;;;1.00;0.90;;;25.40;99.10;;;;;;5079156;28;20032;-86
2021/07/17 12:05:10;;;;;;;0.65;0.57;;;25.30;99.00;;;;;;5078745;28;20028;-86
2021/07/17 12:07:38;;;;;;;0.88;0.73;;;25.40;98.90;;;;;;5078809;28;20101;-88
2021/07/17 12:10:22;;;;;;;0.70;0.70;;;25.40;98.80;;;;;;5096789;28;20028;-87
2021/07/17 12:12:49;;;;;;;1.00;0.68;;;25.40;98.70;;;;;;5097767;28;20024;-87
2021/07/17 12:15:25;;;;;;;0.60;0.60;;;25.40;98.70;;;;;;5097785;28;20019;-86
2021/07/17 12:18:00;;;;;;;0.60;0.60;;;25.40;98.60;;;;;;5101141;28;20028;-87
2021/07/17 12:20:30;;;;;;;0.50;0.50;;;25.40;98.50;;;;;;5079742;28;20390;-88
2021/07/17 12:23:16;;;;;;;0.68;0.65;;;25.40;98.50;;;;;;5078863;28;20135;-87
2021/07/17 12:25:48;;;;;;;0.52;0.52;;;25.40;98.40;;;;;;5096612;28;20024;-88
2021/07/17 12:28:21;;;;;;;0.70;0.60;;;25.40;98.30;;;;;;5079807;28;20111;-88
2021/07/17 12:30:52;;;;;;;0.50;0.50;;;25.30;98.20;;;;;;5062845;28;20042;-87
2021/07/17 12:33:32;;;;;;;0.50;0.50;;;25.40;98.20;;;;;;5097169;28;20057;-86
2021/07/17 12:36:13;;;;;;;0.50;0.50;;;25.40;98.20;;;;;;5096400;28;20095;-87
2021/07/17 12:38:40;;;;;;;0.50;0.50;;;25.40;98.10;;;;;;5096642;28;20372;-86
2021/07/17 12:41:22;;;;;;;0.60;0.60;;;25.40;98.10;;;;;;5098047;28;20122;-87
2021/07/17 12:44:11;;;;;;;0.77;0.60;;;25.40;98.10;;;;;;5097042;28;20529;-87
2021/07/17 12:46:39;;;;;;;0.40;0.40;;;25.40;98.10;;;;;;5096369;28;20050;-88